sensor_id;sensor_type;location;lat;lon;timestamp;temperature;humidity
49679;DHT22;35570;48.218;16.326;2023-03-08T00:02:12;6.80;65.40
49679;DHT22;35570;48.218;16.326;2023-03-08T00:04:37;6.80;66.10
49679;DHT22;35570;48.218;16.326;2023-03-08T00:07:04;6.80;66.90
49679;DHT22;35570;48.218;16.326;2023-03-08T00:09:29;6.80;64.60
49679;DHT22;35570;48.218;16.326;2023-03-08T00:11:55;6.90;64.80
49679;DHT22;35570;48.218;16.326;2023-03-08T00:14:20;6.90;64.10
49679;DHT22;35570;48.218;16.326;2023-03-08T00:16:46;6.90;64.30
49679;DHT22;35570;48.218;16.326;2023-03-08T00:19:12;6.80;65.10
49679;DHT22;35570;48.218;16.326;2023-03-08T00:21:37;6.80;64.70
49679;DHT22;35570;48.218;16.326;2023-03-08T00:24:03;6.80;64.30
49679;DHT22;35570;48.218;16.326;2023-03-08T00:26:30;6.80;65.50
49679;DHT22;35570;48.218;16.326;2023-03-08T00:28:55;6.80;64.70
49679;DHT22;35570;48.218;16.326;2023-03-08T00:31:22;6.80;63.90
49679;DHT22;35570;48.218;16.326;2023-03-08T00:33:52;6.80;64.10
49679;DHT22;35570;48.218;16.326;2023-03-08T00:36:18;6.80;63.70
49679;DHT22;35570;48.218;16.326;2023-03-08T00:38:44;6.70;64.10
49679;DHT22;35570;48.218;16.326;2023-03-08T00:41:10;6.70;64.80
49679;DHT22;35570;48.218;16.326;2023-03-08T00:43:35;6.70;63.60
49679;DHT22;35570;48.218;16.326;2023-03-08T00:46:01;6.70;63.50
49679;DHT22;35570;48.218;16.326;2023-03-08T00:48:26;6.60;62.90
49679;DHT22;35570;48.218;16.326;2023-03-08T00:50:52;6.70;62.80
49679;DHT22;35570;48.218;16.326;2023-03-08T00:53:18;6.60;62.80
49679;DHT22;35570;48.218;16.326;2023-03-08T00:55:51;6.70;61.60
49679;DHT22;35570;48.218;16.326;2023-03-08T00:58:17;6.70;62.20
49679;DHT22;35570;48.218;16.326;2023-03-08T01:00:43;6.60;61.10
49679;DHT22;35570;48.218;16.326;2023-03-08T01:03:09;6.70;61.30
49679;DHT22;35570;48.218;16.326;2023-03-08T01:05:38;6.60;60.40
49679;DHT22;35570;48.218;16.326;2023-03-08T01:08:04;6.60;61.00
49679;DHT22;35570;48.218;16.326;2023-03-08T01:10:29;6.60;61.80
49679;DHT22;35570;48.218;16.326;2023-03-08T01:12:55;6.60;60.50
49679;DHT22;35570;48.218;16.326;2023-03-08T01:15:21;6.50;60.00
49679;DHT22;35570;48.218;16.326;2023-03-08T01:17:47;6.50;60.90
49679;DHT22;35570;48.218;16.326;2023-03-08T01:20:12;6.50;61.10
49679;DHT22;35570;48.218;16.326;2023-03-08T01:22:38;6.50;61.20
49679;DHT22;35570;48.218;16.326;2023-03-08T01:25:03;6.50;61.20
49679;DHT22;35570;48.218;16.326;2023-03-08T01:27:29;6.50;61.70
49679;DHT22;35570;48.218;16.326;2023-03-08T01:29:55;6.40;61.80
49679;DHT22;35570;48.218;16.326;2023-03-08T01:32:20;6.30;61.30
49679;DHT22;35570;48.218;16.326;2023-03-08T01:34:46;6.40;61.40
49679;DHT22;35570;48.218;16.326;2023-03-08T01:37:11;6.30;61.80
49679;DHT22;35570;48.218;16.326;2023-03-08T01:39:37;6.30;62.10
49679;DHT22;35570;48.218;16.326;2023-03-08T01:42:03;6.30;62.70
49679;DHT22;35570;48.218;16.326;2023-03-08T01:44:54;6.30;62.70
49679;DHT22;35570;48.218;16.326;2023-03-08T01:47:28;6.30;63.40
49679;DHT22;35570;48.218;16.326;2023-03-08T01:49:54;6.30;63.60
49679;DHT22;35570;48.218;16.326;2023-03-08T01:52:23;6.30;64.00
49679;DHT22;35570;48.218;16.326;2023-03-08T01:54:50;6.30;64.10
49679;DHT22;35570;48.218;16.326;2023-03-08T01:57:19;6.20;64.50
49679;DHT22;35570;48.218;16.326;2023-03-08T01:59:47;6.20;64.60
49679;DHT22;35570;48.218;16.326;2023-03-08T02:02:13;6.20;65.00
49679;DHT22;35570;48.218;16.326;2023-03-08T02:04:38;6.20;65.10
49679;DHT22;35570;48.218;16.326;2023-03-08T02:07:04;6.20;65.10
49679;DHT22;35570;48.218;16.326;2023-03-08T02:09:30;6.20;65.30
49679;DHT22;35570;48.218;16.326;2023-03-08T02:11:58;6.20;65.50
49679;DHT22;35570;48.218;16.326;2023-03-08T02:14:24;6.20;66.10
49679;DHT22;35570;48.218;16.326;2023-03-08T02:16:50;6.20;66.40
49679;DHT22;35570;48.218;16.326;2023-03-08T02:19:19;6.20;66.40
49679;DHT22;35570;48.218;16.326;2023-03-08T02:21:46;6.20;66.40
49679;DHT22;35570;48.218;16.326;2023-03-08T02:24:19;6.20;66.60
49679;DHT22;35570;48.218;16.326;2023-03-08T02:26:45;6.20;66.60
49679;DHT22;35570;48.218;16.326;2023-03-08T02:29:11;6.20;67.20
49679;DHT22;35570;48.218;16.326;2023-03-08T02:31:36;6.20;67.30
49679;DHT22;35570;48.218;16.326;2023-03-08T02:34:03;6.20;67.90
49679;DHT22;35570;48.218;16.326;2023-03-08T02:36:29;6.20;68.10
49679;DHT22;35570;48.218;16.326;2023-03-08T02:38:54;6.10;68.30
49679;DHT22;35570;48.218;16.326;2023-03-08T02:41:20;6.10;68.40
49679;DHT22;35570;48.218;16.326;2023-03-08T02:43:45;6.00;68.50
49679;DHT22;35570;48.218;16.326;2023-03-08T02:46:11;6.10;68.80
49679;DHT22;35570;48.218;16.326;2023-03-08T02:48:37;6.10;68.70
49679;DHT22;35570;48.218;16.326;2023-03-08T02:51:03;6.10;68.80
49679;DHT22;35570;48.218;16.326;2023-03-08T02:53:28;6.10;68.40
49679;DHT22;35570;48.218;16.326;2023-03-08T02:55:54;6.10;68.50
49679;DHT22;35570;48.218;16.326;2023-03-08T02:58:19;6.00;68.60
49679;DHT22;35570;48.218;16.326;2023-03-08T03:00:45;6.00;68.60
49679;DHT22;35570;48.218;16.326;2023-03-08T03:03:10;6.00;68.60
49679;DHT22;35570;48.218;16.326;2023-03-08T03:05:40;6.00;68.30
49679;DHT22;35570;48.218;16.326;2023-03-08T03:08:05;6.00;68.00
49679;DHT22;35570;48.218;16.326;2023-03-08T03:10:31;6.00;68.10
49679;DHT22;35570;48.218;16.326;2023-03-08T03:12:58;6.00;68.30
49679;DHT22;35570;48.218;16.326;2023-03-08T03:15:24;6.00;68.60
49679;DHT22;35570;48.218;16.326;2023-03-08T03:17:49;6.00;68.30
49679;DHT22;35570;48.218;16.326;2023-03-08T03:20:15;6.00;68.40
49679;DHT22;35570;48.218;16.326;2023-03-08T03:22:41;6.00;68.20
49679;DHT22;35570;48.218;16.326;2023-03-08T03:25:07;6.00;68.00
49679;DHT22;35570;48.218;16.326;2023-03-08T03:27:32;6.00;67.80
49679;DHT22;35570;48.218;16.326;2023-03-08T03:29:58;6.00;68.20
49679;DHT22;35570;48.218;16.326;2023-03-08T03:32:24;6.00;67.40
49679;DHT22;35570;48.218;16.326;2023-03-08T03:34:49;6.10;67.20
49679;DHT22;35570;48.218;16.326;2023-03-08T03:37:15;6.10;66.90
49679;DHT22;35570;48.218;16.326;2023-03-08T03:39:41;6.10;66.90
49679;DHT22;35570;48.218;16.326;2023-03-08T03:42:07;6.10;66.70
49679;DHT22;35570;48.218;16.326;2023-03-08T03:44:32;6.10;66.90
49679;DHT22;35570;48.218;16.326;2023-03-08T03:46:58;6.10;66.90
49679;DHT22;35570;48.218;16.326;2023-03-08T03:49:24;6.10;66.50
49679;DHT22;35570;48.218;16.326;2023-03-08T03:51:49;6.10;67.10
49679;DHT22;35570;48.218;16.326;2023-03-08T03:54:15;6.10;66.20
49679;DHT22;35570;48.218;16.326;2023-03-08T03:56:40;6.10;65.80
49679;DHT22;35570;48.218;16.326;2023-03-08T03:59:06;6.10;66.10
49679;DHT22;35570;48.218;16.326;2023-03-08T04:01:31;6.10;66.20
49679;DHT22;35570;48.218;16.326;2023-03-08T04:03:57;6.10;65.50
49679;DHT22;35570;48.218;16.326;2023-03-08T04:06:24;6.10;65.40
49679;DHT22;35570;48.218;16.326;2023-03-08T04:08:53;6.10;65.60
49679;DHT22;35570;48.218;16.326;2023-03-08T04:11:20;6.10;65.40
49679;DHT22;35570;48.218;16.326;2023-03-08T04:13:46;6.10;64.80
49679;DHT22;35570;48.218;16.326;2023-03-08T04:16:13;6.10;64.70
49679;DHT22;35570;48.218;16.326;2023-03-08T04:18:39;6.10;65.20
49679;DHT22;35570;48.218;16.326;2023-03-08T04:21:05;6.10;64.50
49679;DHT22;35570;48.218;16.326;2023-03-08T04:23:31;6.10;64.70
49679;DHT22;35570;48.218;16.326;2023-03-08T04:25:56;6.20;64.50
49679;DHT22;35570;48.218;16.326;2023-03-08T04:28:22;6.10;64.50
49679;DHT22;35570;48.218;16.326;2023-03-08T04:30:48;6.10;64.20
49679;DHT22;35570;48.218;16.326;2023-03-08T04:33:13;6.20;64.00
49679;DHT22;35570;48.218;16.326;2023-03-08T04:35:39;6.10;64.00
49679;DHT22;35570;48.218;16.326;2023-03-08T04:38:04;6.10;64.10
49679;DHT22;35570;48.218;16.326;2023-03-08T04:40:30;6.20;63.80
49679;DHT22;35570;48.218;16.326;2023-03-08T04:42:55;6.10;63.40
49679;DHT22;35570;48.218;16.326;2023-03-08T04:45:21;6.10;63.60
49679;DHT22;35570;48.218;16.326;2023-03-08T04:47:46;6.10;63.70
49679;DHT22;35570;48.218;16.326;2023-03-08T04:50:12;6.10;63.30
49679;DHT22;35570;48.218;16.326;2023-03-08T04:52:37;6.10;64.20
49679;DHT22;35570;48.218;16.326;2023-03-08T04:55:03;6.10;63.80
49679;DHT22;35570;48.218;16.326;2023-03-08T04:57:29;6.10;64.00
49679;DHT22;35570;48.218;16.326;2023-03-08T04:59:55;6.10;63.80
49679;DHT22;35570;48.218;16.326;2023-03-08T05:02:21;6.10;63.50
49679;DHT22;35570;48.218;16.326;2023-03-08T05:04:47;6.00;64.50
49679;DHT22;35570;48.218;16.326;2023-03-08T05:07:13;6.00;63.80
49679;DHT22;35570;48.218;16.326;2023-03-08T05:09:38;6.00;64.10
49679;DHT22;35570;48.218;16.326;2023-03-08T05:12:04;6.00;64.70
49679;DHT22;35570;48.218;16.326;2023-03-08T05:14:29;6.00;64.30
49679;DHT22;35570;48.218;16.326;2023-03-08T05:16:55;6.00;65.00
49679;DHT22;35570;48.218;16.326;2023-03-08T05:19:21;6.10;64.10
49679;DHT22;35570;48.218;16.326;2023-03-08T05:21:47;6.00;64.40
49679;DHT22;35570;48.218;16.326;2023-03-08T05:24:12;6.00;65.30
49679;DHT22;35570;48.218;16.326;2023-03-08T05:26:38;6.00;65.00
49679;DHT22;35570;48.218;16.326;2023-03-08T05:29:03;6.00;65.00
49679;DHT22;35570;48.218;16.326;2023-03-08T05:31:30;6.00;64.70
49679;DHT22;35570;48.218;16.326;2023-03-08T05:33:56;6.00;65.40
49679;DHT22;35570;48.218;16.326;2023-03-08T05:36:22;5.90;66.50
49679;DHT22;35570;48.218;16.326;2023-03-08T05:38:51;5.90;65.40
49679;DHT22;35570;48.218;16.326;2023-03-08T05:41:16;6.00;65.10
49679;DHT22;35570;48.218;16.326;2023-03-08T05:43:42;6.00;65.80
49679;DHT22;35570;48.218;16.326;2023-03-08T05:46:10;5.90;65.10
49679;DHT22;35570;48.218;16.326;2023-03-08T05:48:36;5.90;66.30
49679;DHT22;35570;48.218;16.326;2023-03-08T05:51:07;6.00;65.30
49679;DHT22;35570;48.218;16.326;2023-03-08T05:53:33;6.00;65.70
49679;DHT22;35570;48.218;16.326;2023-03-08T05:56:12;6.00;67.40
49679;DHT22;35570;48.218;16.326;2023-03-08T05:58:39;6.00;65.70
49679;DHT22;35570;48.218;16.326;2023-03-08T06:01:09;6.00;65.90
49679;DHT22;35570;48.218;16.326;2023-03-08T06:03:34;6.10;65.20
49679;DHT22;35570;48.218;16.326;2023-03-08T06:06:00;6.10;65.70
49679;DHT22;35570;48.218;16.326;2023-03-08T06:08:25;6.10;66.00
49679;DHT22;35570;48.218;16.326;2023-03-08T06:10:51;6.00;67.00
49679;DHT22;35570;48.218;16.326;2023-03-08T06:13:17;6.10;66.80
49679;DHT22;35570;48.218;16.326;2023-03-08T06:15:42;6.20;66.50
49679;DHT22;35570;48.218;16.326;2023-03-08T06:18:08;6.30;66.30
49679;DHT22;35570;48.218;16.326;2023-03-08T06:20:33;6.40;65.60
49679;DHT22;35570;48.218;16.326;2023-03-08T06:22:59;6.50;65.40
49679;DHT22;35570;48.218;16.326;2023-03-08T06:25:24;6.50;64.90
49679;DHT22;35570;48.218;16.326;2023-03-08T06:27:50;6.50;64.60
49679;DHT22;35570;48.218;16.326;2023-03-08T06:30:15;6.60;65.00
49679;DHT22;35570;48.218;16.326;2023-03-08T06:32:41;6.70;65.60
49679;DHT22;35570;48.218;16.326;2023-03-08T06:35:07;6.70;63.50
49679;DHT22;35570;48.218;16.326;2023-03-08T06:37:33;6.80;63.80
49679;DHT22;35570;48.218;16.326;2023-03-08T06:39:59;6.90;63.10
49679;DHT22;35570;48.218;16.326;2023-03-08T06:42:26;7.00;63.90
49679;DHT22;35570;48.218;16.326;2023-03-08T06:44:51;7.10;63.30
49679;DHT22;35570;48.218;16.326;2023-03-08T06:47:17;7.20;62.20
49679;DHT22;35570;48.218;16.326;2023-03-08T06:49:42;7.30;61.80
49679;DHT22;35570;48.218;16.326;2023-03-08T06:52:08;7.40;62.80
49679;DHT22;35570;48.218;16.326;2023-03-08T06:54:34;7.50;61.90
49679;DHT22;35570;48.218;16.326;2023-03-08T06:56:59;7.50;61.70
49679;DHT22;35570;48.218;16.326;2023-03-08T06:59:25;7.60;60.60
49679;DHT22;35570;48.218;16.326;2023-03-08T07:01:51;7.60;61.10
49679;DHT22;35570;48.218;16.326;2023-03-08T07:04:17;7.70;61.40
49679;DHT22;35570;48.218;16.326;2023-03-08T07:06:43;7.80;60.00
49679;DHT22;35570;48.218;16.326;2023-03-08T07:09:08;7.80;60.00
49679;DHT22;35570;48.218;16.326;2023-03-08T07:11:34;7.90;59.10
49679;DHT22;35570;48.218;16.326;2023-03-08T07:13:59;7.90;59.20
49679;DHT22;35570;48.218;16.326;2023-03-08T07:16:25;7.90;59.40
49679;DHT22;35570;48.218;16.326;2023-03-08T07:18:51;7.90;60.00
49679;DHT22;35570;48.218;16.326;2023-03-08T07:21:17;8.00;59.30
49679;DHT22;35570;48.218;16.326;2023-03-08T07:23:42;8.20;60.70
49679;DHT22;35570;48.218;16.326;2023-03-08T07:26:08;8.30;58.50
49679;DHT22;35570;48.218;16.326;2023-03-08T07:28:34;8.30;58.30
49679;DHT22;35570;48.218;16.326;2023-03-08T07:31:00;8.30;58.00
49679;DHT22;35570;48.218;16.326;2023-03-08T07:33:25;8.30;57.70
49679;DHT22;35570;48.218;16.326;2023-03-08T07:35:51;8.30;57.80
49679;DHT22;35570;48.218;16.326;2023-03-08T07:38:16;8.50;58.20
49679;DHT22;35570;48.218;16.326;2023-03-08T07:40:42;8.70;58.30
49679;DHT22;35570;48.218;16.326;2023-03-08T07:43:08;8.90;56.30
49679;DHT22;35570;48.218;16.326;2023-03-08T07:45:33;9.00;55.90
49679;DHT22;35570;48.218;16.326;2023-03-08T07:47:59;9.10;55.70
49679;DHT22;35570;48.218;16.326;2023-03-08T07:50:25;9.30;55.50
49679;DHT22;35570;48.218;16.326;2023-03-08T07:52:51;9.50;54.00
49679;DHT22;35570;48.218;16.326;2023-03-08T07:55:16;9.50;54.60
49679;DHT22;35570;48.218;16.326;2023-03-08T07:57:42;9.60;53.20
49679;DHT22;35570;48.218;16.326;2023-03-08T08:00:07;9.50;53.40
49679;DHT22;35570;48.218;16.326;2023-03-08T08:02:34;9.70;53.40
49679;DHT22;35570;48.218;16.326;2023-03-08T08:05:00;9.90;54.00
49679;DHT22;35570;48.218;16.326;2023-03-08T08:07:25;10.00;52.30
49679;DHT22;35570;48.218;16.326;2023-03-08T08:09:51;10.10;51.60
49679;DHT22;35570;48.218;16.326;2023-03-08T08:12:18;10.10;52.60
49679;DHT22;35570;48.218;16.326;2023-03-08T08:14:43;10.30;51.30
49679;DHT22;35570;48.218;16.326;2023-03-08T08:17:09;10.30;51.00
49679;DHT22;35570;48.218;16.326;2023-03-08T08:19:35;10.30;50.80
49679;DHT22;35570;48.218;16.326;2023-03-08T08:22:01;10.40;50.80
49679;DHT22;35570;48.218;16.326;2023-03-08T08:24:27;10.40;50.10
49679;DHT22;35570;48.218;16.326;2023-03-08T08:26:52;10.40;50.40
49679;DHT22;35570;48.218;16.326;2023-03-08T08:29:18;10.40;50.80
49679;DHT22;35570;48.218;16.326;2023-03-08T08:31:45;10.50;52.00
49679;DHT22;35570;48.218;16.326;2023-03-08T08:34:10;10.70;50.50
49679;DHT22;35570;48.218;16.326;2023-03-08T08:36:36;10.80;52.30
49679;DHT22;35570;48.218;16.326;2023-03-08T08:39:01;11.00;50.70
49679;DHT22;35570;48.218;16.326;2023-03-08T08:41:27;11.10;50.30
49679;DHT22;35570;48.218;16.326;2023-03-08T08:43:53;11.20;48.40
49679;DHT22;35570;48.218;16.326;2023-03-08T08:46:23;11.20;48.80
49679;DHT22;35570;48.218;16.326;2023-03-08T08:48:48;11.30;48.30
49679;DHT22;35570;48.218;16.326;2023-03-08T08:51:14;11.20;47.30
49679;DHT22;35570;48.218;16.326;2023-03-08T08:53:40;11.10;48.20
49679;DHT22;35570;48.218;16.326;2023-03-08T08:56:24;11.20;50.50
49679;DHT22;35570;48.218;16.326;2023-03-08T08:58:50;11.30;50.80
49679;DHT22;35570;48.218;16.326;2023-03-08T09:01:17;11.20;47.10
49679;DHT22;35570;48.218;16.326;2023-03-08T09:03:43;11.00;48.00
49679;DHT22;35570;48.218;16.326;2023-03-08T09:06:09;10.90;49.50
49679;DHT22;35570;48.218;16.326;2023-03-08T09:08:34;11.00;50.30
49679;DHT22;35570;48.218;16.326;2023-03-08T09:11:04;11.00;47.20
49679;DHT22;35570;48.218;16.326;2023-03-08T09:13:31;11.00;47.40
49679;DHT22;35570;48.218;16.326;2023-03-08T09:15:57;11.30;49.20
49679;DHT22;35570;48.218;16.326;2023-03-08T09:18:22;11.40;48.20
49679;DHT22;35570;48.218;16.326;2023-03-08T09:20:48;11.20;46.90
49679;DHT22;35570;48.218;16.326;2023-03-08T09:23:13;11.00;48.40
49679;DHT22;35570;48.218;16.326;2023-03-08T09:25:39;11.00;47.90
49679;DHT22;35570;48.218;16.326;2023-03-08T09:28:05;11.00;49.70
49679;DHT22;35570;48.218;16.326;2023-03-08T09:30:30;10.90;47.70
49679;DHT22;35570;48.218;16.326;2023-03-08T09:32:57;10.90;47.60
49679;DHT22;35570;48.218;16.326;2023-03-08T09:35:23;10.90;47.50
49679;DHT22;35570;48.218;16.326;2023-03-08T09:37:48;11.00;48.10
49679;DHT22;35570;48.218;16.326;2023-03-08T09:40:18;11.20;47.20
49679;DHT22;35570;48.218;16.326;2023-03-08T09:42:44;11.20;47.90
49679;DHT22;35570;48.218;16.326;2023-03-08T09:52:49;11.30;47.50
49679;DHT22;35570;48.218;16.326;2023-03-08T09:57:53;11.20;49.50
49679;DHT22;35570;48.218;16.326;2023-03-08T10:00:21;11.30;49.50
49679;DHT22;35570;48.218;16.326;2023-03-08T10:05:24;11.00;48.50
49679;DHT22;35570;48.218;16.326;2023-03-08T10:10:53;10.90;49.20
49679;DHT22;35570;48.218;16.326;2023-03-08T10:15:48;10.80;51.20
49679;DHT22;35570;48.218;16.326;2023-03-08T10:18:17;10.90;51.10
49679;DHT22;35570;48.218;16.326;2023-03-08T10:20:46;10.90;49.40
49679;DHT22;35570;48.218;16.326;2023-03-08T10:23:13;10.80;49.90
49679;DHT22;35570;48.218;16.326;2023-03-08T10:25:39;10.70;50.50
49679;DHT22;35570;48.218;16.326;2023-03-08T10:28:08;10.60;50.10
49679;DHT22;35570;48.218;16.326;2023-03-08T10:30:57;10.60;52.80
49679;DHT22;35570;48.218;16.326;2023-03-08T10:33:23;10.60;51.60
49679;DHT22;35570;48.218;16.326;2023-03-08T10:35:54;10.60;52.70
49679;DHT22;35570;48.218;16.326;2023-03-08T10:38:20;10.60;51.70
49679;DHT22;35570;48.218;16.326;2023-03-08T10:40:46;10.50;50.90
49679;DHT22;35570;48.218;16.326;2023-03-08T10:43:15;10.50;51.50
49679;DHT22;35570;48.218;16.326;2023-03-08T10:45:42;10.50;51.70
49679;DHT22;35570;48.218;16.326;2023-03-08T10:48:15;10.50;52.30
49679;DHT22;35570;48.218;16.326;2023-03-08T10:50:42;10.40;52.10
49679;DHT22;35570;48.218;16.326;2023-03-08T10:53:09;10.50;52.90
49679;DHT22;35570;48.218;16.326;2023-03-08T10:55:38;10.60;52.40
49679;DHT22;35570;48.218;16.326;2023-03-08T10:58:20;10.60;53.40
49679;DHT22;35570;48.218;16.326;2023-03-08T11:00:51;10.70;52.80
49679;DHT22;35570;48.218;16.326;2023-03-08T11:03:18;10.60;53.40
49679;DHT22;35570;48.218;16.326;2023-03-08T11:08:40;10.80;54.00
49679;DHT22;35570;48.218;16.326;2023-03-08T11:11:15;10.80;54.30
49679;DHT22;35570;48.218;16.326;2023-03-08T11:13:44;11.00;54.00
49679;DHT22;35570;48.218;16.326;2023-03-08T11:32:02;11.80;53.10
49679;DHT22;35570;48.218;16.326;2023-03-08T11:34:35;11.70;54.10
49679;DHT22;35570;48.218;16.326;2023-03-08T11:39:34;11.30;52.90
49679;DHT22;35570;48.218;16.326;2023-03-08T11:42:03;11.20;54.20
49679;DHT22;35570;48.218;16.326;2023-03-08T11:52:26;11.20;54.20
49679;DHT22;35570;48.218;16.326;2023-03-08T11:57:19;11.00;54.80
49679;DHT22;35570;48.218;16.326;2023-03-08T11:59:47;10.90;54.80
49679;DHT22;35570;48.218;16.326;2023-03-08T12:02:26;10.90;54.70
49679;DHT22;35570;48.218;16.326;2023-03-08T12:05:04;10.70;54.60
49679;DHT22;35570;48.218;16.326;2023-03-08T12:07:49;10.80;56.00
49679;DHT22;35570;48.218;16.326;2023-03-08T12:10:24;10.80;56.10
49679;DHT22;35570;48.218;16.326;2023-03-08T12:15:39;10.80;56.40
49679;DHT22;35570;48.218;16.326;2023-03-08T12:20:35;10.80;57.20
49679;DHT22;35570;48.218;16.326;2023-03-08T12:25:51;10.70;56.80
49679;DHT22;35570;48.218;16.326;2023-03-08T12:28:29;10.60;58.00
49679;DHT22;35570;48.218;16.326;2023-03-08T12:31:07;10.60;57.90
49679;DHT22;35570;48.218;16.326;2023-03-08T12:33:38;10.50;58.50
49679;DHT22;35570;48.218;16.326;2023-03-08T12:36:05;10.50;59.10
49679;DHT22;35570;48.218;16.326;2023-03-08T12:38:37;10.60;59.30
49679;DHT22;35570;48.218;16.326;2023-03-08T12:41:04;10.60;59.70
49679;DHT22;35570;48.218;16.326;2023-03-08T12:43:34;10.50;60.50
49679;DHT22;35570;48.218;16.326;2023-03-08T12:58:24;10.30;64.00
49679;DHT22;35570;48.218;16.326;2023-03-08T13:00:56;10.30;63.70
49679;DHT22;35570;48.218;16.326;2023-03-08T13:03:25;10.30;64.20
49679;DHT22;35570;48.218;16.326;2023-03-08T13:05:51;10.20;64.50
49679;DHT22;35570;48.218;16.326;2023-03-08T13:08:21;10.10;65.00
49679;DHT22;35570;48.218;16.326;2023-03-08T13:13:25;10.10;66.00
49679;DHT22;35570;48.218;16.326;2023-03-08T13:16:03;10.10;65.50
49679;DHT22;35570;48.218;16.326;2023-03-08T13:18:29;10.00;66.20
49679;DHT22;35570;48.218;16.326;2023-03-08T13:23:36;10.10;67.40
49679;DHT22;35570;48.218;16.326;2023-03-08T13:26:05;10.20;66.80
49679;DHT22;35570;48.218;16.326;2023-03-08T13:28:37;10.30;66.00
49679;DHT22;35570;48.218;16.326;2023-03-08T13:31:09;10.30;66.00
49679;DHT22;35570;48.218;16.326;2023-03-08T13:33:37;10.30;66.00
49679;DHT22;35570;48.218;16.326;2023-03-08T13:36:14;10.50;66.30
49679;DHT22;35570;48.218;16.326;2023-03-08T13:38:41;10.60;65.80
49679;DHT22;35570;48.218;16.326;2023-03-08T13:41:06;10.80;66.00
49679;DHT22;35570;48.218;16.326;2023-03-08T13:43:33;11.00;65.00
49679;DHT22;35570;48.218;16.326;2023-03-08T13:46:02;11.20;64.20
49679;DHT22;35570;48.218;16.326;2023-03-08T13:48:30;11.20;62.90
49679;DHT22;35570;48.218;16.326;2023-03-08T13:50:57;11.20;63.90
49679;DHT22;35570;48.218;16.326;2023-03-08T13:53:24;11.20;63.80
49679;DHT22;35570;48.218;16.326;2023-03-08T13:55:51;11.10;64.30
49679;DHT22;35570;48.218;16.326;2023-03-08T14:03:25;11.50;64.40
49679;DHT22;35570;48.218;16.326;2023-03-08T14:05:51;11.70;64.60
49679;DHT22;35570;48.218;16.326;2023-03-08T14:08:18;11.80;63.00
49679;DHT22;35570;48.218;16.326;2023-03-08T14:10:44;11.80;61.80
49679;DHT22;35570;48.218;16.326;2023-03-08T14:13:30;11.70;63.00
49679;DHT22;35570;48.218;16.326;2023-03-08T14:15:57;11.70;63.40
49679;DHT22;35570;48.218;16.326;2023-03-08T14:18:26;11.70;64.00
49679;DHT22;35570;48.218;16.326;2023-03-08T14:20:59;11.70;62.40
49679;DHT22;35570;48.218;16.326;2023-03-08T14:23:24;11.60;63.50
49679;DHT22;35570;48.218;16.326;2023-03-08T14:25:56;11.50;63.30
49679;DHT22;35570;48.218;16.326;2023-03-08T14:28:35;11.50;64.20
49679;DHT22;35570;48.218;16.326;2023-03-08T14:31:01;11.40;64.20
49679;DHT22;35570;48.218;16.326;2023-03-08T14:33:26;11.40;64.80
49679;DHT22;35570;48.218;16.326;2023-03-08T14:35:56;11.30;64.80
49679;DHT22;35570;48.218;16.326;2023-03-08T14:38:25;11.20;65.60
49679;DHT22;35570;48.218;16.326;2023-03-08T14:40:51;11.20;65.40
49679;DHT22;35570;48.218;16.326;2023-03-08T14:43:17;11.10;65.10
49679;DHT22;35570;48.218;16.326;2023-03-08T14:45:54;11.20;66.40
49679;DHT22;35570;48.218;16.326;2023-03-08T14:48:27;11.20;65.90
49679;DHT22;35570;48.218;16.326;2023-03-08T14:51:00;11.20;65.80
49679;DHT22;35570;48.218;16.326;2023-03-08T14:55:53;11.20;66.00
49679;DHT22;35570;48.218;16.326;2023-03-08T14:58:19;11.40;65.70
49679;DHT22;35570;48.218;16.326;2023-03-08T15:00:49;11.50;66.60
49679;DHT22;35570;48.218;16.326;2023-03-08T15:03:14;11.60;64.10
49679;DHT22;35570;48.218;16.326;2023-03-08T15:05:40;11.80;65.40
49679;DHT22;35570;48.218;16.326;2023-03-08T15:08:07;11.90;65.20
49679;DHT22;35570;48.218;16.326;2023-03-08T15:10:35;12.20;63.90
49679;DHT22;35570;48.218;16.326;2023-03-08T15:13:04;12.40;65.70
49679;DHT22;35570;48.218;16.326;2023-03-08T15:15:30;12.60;62.60
49679;DHT22;35570;48.218;16.326;2023-03-08T15:17:56;12.80;62.20
49679;DHT22;35570;48.218;16.326;2023-03-08T15:20:21;12.90;63.10
49679;DHT22;35570;48.218;16.326;2023-03-08T15:22:52;12.90;61.10
49679;DHT22;35570;48.218;16.326;2023-03-08T15:25:22;12.90;62.00
49679;DHT22;35570;48.218;16.326;2023-03-08T15:27:49;12.80;64.10
49679;DHT22;35570;48.218;16.326;2023-03-08T15:30:15;12.70;62.30
49679;DHT22;35570;48.218;16.326;2023-03-08T15:32:41;12.70;63.00
49679;DHT22;35570;48.218;16.326;2023-03-08T15:35:07;12.60;62.70
49679;DHT22;35570;48.218;16.326;2023-03-08T15:37:33;12.60;62.80
49679;DHT22;35570;48.218;16.326;2023-03-08T15:39:58;12.50;62.90
49679;DHT22;35570;48.218;16.326;2023-03-08T15:42:43;12.40;62.70
49679;DHT22;35570;48.218;16.326;2023-03-08T15:48:13;12.30;63.40
49679;DHT22;35570;48.218;16.326;2023-03-08T15:50:39;12.20;64.30
49679;DHT22;35570;48.218;16.326;2023-03-08T15:53:05;12.10;64.90
49679;DHT22;35570;48.218;16.326;2023-03-08T15:55:32;12.10;64.00
49679;DHT22;35570;48.218;16.326;2023-03-08T16:04:00;12.00;64.00
49679;DHT22;35570;48.218;16.326;2023-03-08T16:06:26;11.90;63.80
49679;DHT22;35570;48.218;16.326;2023-03-08T16:08:52;11.80;65.50
49679;DHT22;35570;48.218;16.326;2023-03-08T16:17:30;11.80;65.70
49679;DHT22;35570;48.218;16.326;2023-03-08T16:20:00;11.70;65.00
49679;DHT22;35570;48.218;16.326;2023-03-08T16:22:25;11.70;65.50
49679;DHT22;35570;48.218;16.326;2023-03-08T16:24:51;11.60;65.10
49679;DHT22;35570;48.218;16.326;2023-03-08T16:27:16;11.50;66.00
49679;DHT22;35570;48.218;16.326;2023-03-08T16:39:08;11.60;68.30
49679;DHT22;35570;48.218;16.326;2023-03-08T16:41:37;11.60;69.90
49679;DHT22;35570;48.218;16.326;2023-03-08T16:44:03;11.50;68.40
49679;DHT22;35570;48.218;16.326;2023-03-08T16:46:29;11.40;70.90
49679;DHT22;35570;48.218;16.326;2023-03-08T16:48:55;11.40;70.20
49679;DHT22;35570;48.218;16.326;2023-03-08T16:51:22;11.40;70.30
49679;DHT22;35570;48.218;16.326;2023-03-08T17:06:26;11.20;73.10
49679;DHT22;35570;48.218;16.326;2023-03-08T17:15:02;11.00;71.60
49679;DHT22;35570;48.218;16.326;2023-03-08T17:17:29;10.90;72.70
49679;DHT22;35570;48.218;16.326;2023-03-08T17:19:54;10.90;74.20
49679;DHT22;35570;48.218;16.326;2023-03-08T17:22:20;10.80;73.80
49679;DHT22;35570;48.218;16.326;2023-03-08T17:24:45;10.90;72.20
49679;DHT22;35570;48.218;16.326;2023-03-08T17:27:11;11.00;68.90
49679;DHT22;35570;48.218;16.326;2023-03-08T17:29:36;11.00;68.80
49679;DHT22;35570;48.218;16.326;2023-03-08T17:34:48;11.10;69.20